KPKB/PKB METAR and TAF weather

Enter ICAO airport designator
Station Type Date Time Source
KPKB METAR 2019/10/23 07:53 UTC NOAA

KPKB 230753Z AUTO A3001 RMK AO2 SLPNO PWINO FZRANO $


Station Type Date Time Source
KPKB Decoded METAR 2019/10/23 07:53 UTC NOAA

MID-OHIO VALLEY RGNL AIRPORT, WV, United States (KPKB) 39-20N 81-27W
Oct 23, 2019 - 03:53 AM EDT / 2019.10.23 0753 UTC
Pressure (altimeter): 30.01 in. Hg (1016 hPa)
ob: KPKB 230753Z AUTO A3001 RMK AO2 SLPNO PWINO FZRANO
cycle: 8

Station Type Date Time Source
KPKB TAF 2019/10/23 06:22 UTC NOAA

TAF KPKB 230520Z 2306/2406 26004KT P6SM FEW080
FM231200 23004KT P6SM SKC
FM231600 26008G18KT P6SM SKC
FM232200 22004KT P6SM SKC

Example: see airport list